sensor_id;sensor_type;location;lat;lon;timestamp;pressure;altitude;pressure_sealevel;temperature;humidity
73594;BME280;64760;53.404;23.498;2024-02-26T00:00:06;98863.75;;;14.11;82.14
73594;BME280;64760;53.404;23.498;2024-02-26T00:02:36;98876.53;;;14.16;82.04
73594;BME280;64760;53.404;23.498;2024-02-26T00:05:05;98869.16;;;14.11;82.34
73594;BME280;64760;53.404;23.498;2024-02-26T00:07:33;98859.47;;;14.27;81.13
73594;BME280;64760;53.404;23.498;2024-02-26T00:09:59;98852.16;;;14.11;82.13
73594;BME280;64760;53.404;23.498;2024-02-26T00:12:26;98859.19;;;14.12;82.14
73594;BME280;64760;53.404;23.498;2024-02-26T00:14:52;98853.97;;;14.22;82.06
73594;BME280;64760;53.404;23.498;2024-02-26T00:17:20;98853.84;;;14.29;81.18
73594;BME280;64760;53.404;23.498;2024-02-26T00:19:46;98854.03;;;14.10;81.47
73594;BME280;64760;53.404;23.498;2024-02-26T00:22:12;98850.91;;;14.02;81.98
73594;BME280;64760;53.404;23.498;2024-02-26T00:24:40;98854.72;;;13.78;83.00
73594;BME280;64760;53.404;23.498;2024-02-26T00:27:07;98849.03;;;13.62;83.86
73594;BME280;64760;53.404;23.498;2024-02-26T00:29:33;98850.41;;;13.77;84.07
73594;BME280;64760;53.404;23.498;2024-02-26T00:32:00;98855.34;;;13.68;84.16
73594;BME280;64760;53.404;23.498;2024-02-26T00:34:27;98849.13;;;13.68;84.38
73594;BME280;64760;53.404;23.498;2024-02-26T00:36:54;98853.34;;;13.75;84.45
73594;BME280;64760;53.404;23.498;2024-02-26T00:39:20;98840.66;;;13.87;83.42
73594;BME280;64760;53.404;23.498;2024-02-26T00:41:47;98833.47;;;13.64;84.54
73594;BME280;64760;53.404;23.498;2024-02-26T00:44:13;98833.75;;;13.80;83.75
73594;BME280;64760;53.404;23.498;2024-02-26T00:46:40;98835.34;;;13.64;84.44
73594;BME280;64760;53.404;23.498;2024-02-26T00:49:06;98833.38;;;13.48;85.16
73594;BME280;64760;53.404;23.498;2024-02-26T00:51:32;98829.31;;;13.45;84.19
73594;BME280;64760;53.404;23.498;2024-02-26T00:53:59;98832.94;;;13.39;84.96
73594;BME280;64760;53.404;23.498;2024-02-26T00:56:26;98832.78;;;13.57;83.71
73594;BME280;64760;53.404;23.498;2024-02-26T00:58:52;98824.78;;;13.62;83.24
73594;BME280;64760;53.404;23.498;2024-02-26T01:01:19;98828.91;;;13.65;83.16
73594;BME280;64760;53.404;23.498;2024-02-26T01:03:45;98838.63;;;13.94;81.57
73594;BME280;64760;53.404;23.498;2024-02-26T01:06:12;98836.53;;;13.96;81.01
73594;BME280;64760;53.404;23.498;2024-02-26T01:08:38;98836.78;;;13.83;81.22
73594;BME280;64760;53.404;23.498;2024-02-26T01:11:05;98829.25;;;13.69;81.41
73594;BME280;64760;53.404;23.498;2024-02-26T01:13:32;98834.72;;;13.74;82.09
73594;BME280;64760;53.404;23.498;2024-02-26T01:15:58;98831.69;;;13.70;81.97
73594;BME280;64760;53.404;23.498;2024-02-26T01:18:26;98835.31;;;13.76;81.47
73594;BME280;64760;53.404;23.498;2024-02-26T01:20:53;98825.47;;;13.70;81.91
73594;BME280;64760;53.404;23.498;2024-02-26T01:23:20;98832.97;;;13.68;83.03
73594;BME280;64760;53.404;23.498;2024-02-26T01:25:47;98832.03;;;14.02;81.86
73594;BME280;64760;53.404;23.498;2024-02-26T01:28:14;98820.69;;;14.00;81.32
73594;BME280;64760;53.404;23.498;2024-02-26T01:30:41;98821.78;;;13.87;82.10
73594;BME280;64760;53.404;23.498;2024-02-26T01:33:07;98819.97;;;13.76;82.62
73594;BME280;64760;53.404;23.498;2024-02-26T01:35:33;98814.63;;;13.93;81.43
73594;BME280;64760;53.404;23.498;2024-02-26T01:38:00;98817.31;;;13.64;81.49
73594;BME280;64760;53.404;23.498;2024-02-26T01:40:27;98820.81;;;13.65;81.70
73594;BME280;64760;53.404;23.498;2024-02-26T01:42:53;98807.81;;;13.62;81.23
73594;BME280;64760;53.404;23.498;2024-02-26T01:45:20;98809.56;;;13.68;80.69
73594;BME280;64760;53.404;23.498;2024-02-26T01:47:51;98806.44;;;13.59;80.51
73594;BME280;64760;53.404;23.498;2024-02-26T01:50:18;98809.72;;;13.50;81.13
73594;BME280;64760;53.404;23.498;2024-02-26T01:52:46;98802.47;;;13.50;80.57
73594;BME280;64760;53.404;23.498;2024-02-26T01:55:14;98809.84;;;13.43;81.08
73594;BME280;64760;53.404;23.498;2024-02-26T01:57:45;98808.91;;;13.38;81.19
73594;BME280;64760;53.404;23.498;2024-02-26T02:00:14;98812.09;;;13.35;81.00
73594;BME280;64760;53.404;23.498;2024-02-26T02:02:41;98813.41;;;13.32;81.17
73594;BME280;64760;53.404;23.498;2024-02-26T02:12:10;98821.91;;;13.06;81.90
73594;BME280;64760;53.404;23.498;2024-02-26T02:14:41;98813.97;;;12.88;82.40
73594;BME280;64760;53.404;23.498;2024-02-26T02:17:19;98822.28;;;12.98;82.27
73594;BME280;64760;53.404;23.498;2024-02-26T02:19:45;98828.59;;;12.92;82.30
73594;BME280;64760;53.404;23.498;2024-02-26T02:22:12;98828.13;;;12.83;82.38
73594;BME280;64760;53.404;23.498;2024-02-26T02:24:39;98822.25;;;12.75;82.49
73594;BME280;64760;53.404;23.498;2024-02-26T02:27:05;98825.19;;;12.73;82.67
73594;BME280;64760;53.404;23.498;2024-02-26T02:29:32;98830.59;;;12.73;82.23
73594;BME280;64760;53.404;23.498;2024-02-26T02:31:59;98819.69;;;12.80;81.18
73594;BME280;64760;53.404;23.498;2024-02-26T02:34:27;98820.75;;;12.79;81.35
73594;BME280;64760;53.404;23.498;2024-02-26T02:36:54;98814.78;;;12.77;81.23
73594;BME280;64760;53.404;23.498;2024-02-26T02:39:20;98822.63;;;12.78;81.22
73594;BME280;64760;53.404;23.498;2024-02-26T02:41:47;98815.38;;;12.79;81.77
73594;BME280;64760;53.404;23.498;2024-02-26T02:44:13;98811.88;;;12.90;81.44
73594;BME280;64760;53.404;23.498;2024-02-26T02:46:40;98822.75;;;12.95;80.63
73594;BME280;64760;53.404;23.498;2024-02-26T02:49:09;98818.31;;;12.89;81.28
73594;BME280;64760;53.404;23.498;2024-02-26T02:51:39;98820.88;;;12.95;79.68
73594;BME280;64760;53.404;23.498;2024-02-26T02:54:05;98826.13;;;12.90;79.92
73594;BME280;64760;53.404;23.498;2024-02-26T02:56:32;98824.38;;;12.84;79.77
73594;BME280;64760;53.404;23.498;2024-02-26T02:58:58;98827.06;;;12.84;78.93
73594;BME280;64760;53.404;23.498;2024-02-26T03:01:24;98818.31;;;12.77;79.20
73594;BME280;64760;53.404;23.498;2024-02-26T03:03:51;98824.03;;;12.81;78.52
73594;BME280;64760;53.404;23.498;2024-02-26T03:06:17;98822.25;;;12.75;78.72
73594;BME280;64760;53.404;23.498;2024-02-26T03:08:43;98821.91;;;12.71;78.85
73594;BME280;64760;53.404;23.498;2024-02-26T03:11:14;98834.09;;;12.74;78.66
73594;BME280;64760;53.404;23.498;2024-02-26T03:13:41;98831.25;;;12.57;80.89
73594;BME280;64760;53.404;23.498;2024-02-26T03:16:08;98825.19;;;12.61;79.86
73594;BME280;64760;53.404;23.498;2024-02-26T03:18:34;98821.56;;;12.67;79.47
73594;BME280;64760;53.404;23.498;2024-02-26T03:21:01;98824.13;;;12.62;79.59
73594;BME280;64760;53.404;23.498;2024-02-26T03:23:28;98828.94;;;12.60;78.50
73594;BME280;64760;53.404;23.498;2024-02-26T03:25:56;98825.41;;;12.48;79.56
73594;BME280;64760;53.404;23.498;2024-02-26T03:28:23;98823.19;;;12.45;78.18
73594;BME280;64760;53.404;23.498;2024-02-26T03:30:49;98823.72;;;12.36;78.42
73594;BME280;64760;53.404;23.498;2024-02-26T03:33:15;98832.47;;;12.31;79.52
73594;BME280;64760;53.404;23.498;2024-02-26T03:35:42;98835.41;;;12.30;79.45
73594;BME280;64760;53.404;23.498;2024-02-26T03:38:08;98838.31;;;12.28;79.85
73594;BME280;64760;53.404;23.498;2024-02-26T03:40:34;98834.44;;;12.24;80.50
73594;BME280;64760;53.404;23.498;2024-02-26T03:43:00;98832.63;;;12.36;79.91
73594;BME280;64760;53.404;23.498;2024-02-26T03:45:28;98826.63;;;12.34;79.35
73594;BME280;64760;53.404;23.498;2024-02-26T03:47:54;98833.09;;;12.33;79.41
73594;BME280;64760;53.404;23.498;2024-02-26T03:50:21;98839.47;;;12.20;80.19
73594;BME280;64760;53.404;23.498;2024-02-26T03:52:47;98840.16;;;12.16;81.63
73594;BME280;64760;53.404;23.498;2024-02-26T03:55:13;98845.91;;;12.31;80.65
73594;BME280;64760;53.404;23.498;2024-02-26T03:57:40;98841.00;;;12.28;80.42
73594;BME280;64760;53.404;23.498;2024-02-26T04:00:07;98853.97;;;12.31;79.58
73594;BME280;64760;53.404;23.498;2024-02-26T04:02:42;98838.13;;;12.41;79.90
73594;BME280;64760;53.404;23.498;2024-02-26T04:05:10;98837.66;;;12.44;80.11
73594;BME280;64760;53.404;23.498;2024-02-26T04:07:37;98842.56;;;12.47;80.96
73594;BME280;64760;53.404;23.498;2024-02-26T04:10:09;98847.13;;;12.58;82.24
73594;BME280;64760;53.404;23.498;2024-02-26T04:12:35;98844.03;;;12.73;81.47
73594;BME280;64760;53.404;23.498;2024-02-26T04:15:02;98841.00;;;12.93;81.32
73594;BME280;64760;53.404;23.498;2024-02-26T04:17:31;98841.00;;;12.93;80.88
73594;BME280;64760;53.404;23.498;2024-02-26T04:19:58;98839.13;;;12.93;80.20
73594;BME280;64760;53.404;23.498;2024-02-26T04:22:24;98846.94;;;12.83;80.98
73594;BME280;64760;53.404;23.498;2024-02-26T04:24:50;98846.72;;;12.73;81.50
73594;BME280;64760;53.404;23.498;2024-02-26T04:27:17;98838.63;;;12.61;81.56
73594;BME280;64760;53.404;23.498;2024-02-26T04:29:43;98839.69;;;12.60;81.77
73594;BME280;64760;53.404;23.498;2024-02-26T04:32:09;98837.78;;;12.49;81.92
73594;BME280;64760;53.404;23.498;2024-02-26T04:34:36;98837.66;;;12.44;82.32
73594;BME280;64760;53.404;23.498;2024-02-26T04:37:02;98840.47;;;12.49;82.11
73594;BME280;64760;53.404;23.498;2024-02-26T04:39:29;98848.56;;;12.61;81.14
73594;BME280;64760;53.404;23.498;2024-02-26T04:41:55;98852.41;;;12.53;81.62
73594;BME280;64760;53.404;23.498;2024-02-26T04:44:22;98851.22;;;12.49;82.02
73594;BME280;64760;53.404;23.498;2024-02-26T04:46:48;98840.00;;;12.52;81.65
73594;BME280;64760;53.404;23.498;2024-02-26T04:49:14;98838.84;;;12.48;81.54
73594;BME280;64760;53.404;23.498;2024-02-26T04:51:41;98841.06;;;12.51;81.67
73594;BME280;64760;53.404;23.498;2024-02-26T04:54:07;98845.84;;;12.49;81.89
73594;BME280;64760;53.404;23.498;2024-02-26T04:56:33;98839.91;;;12.59;81.60
73594;BME280;64760;53.404;23.498;2024-02-26T04:59:00;98847.41;;;12.68;81.27
73594;BME280;64760;53.404;23.498;2024-02-26T05:01:26;98834.31;;;12.60;81.21
73594;BME280;64760;53.404;23.498;2024-02-26T05:03:53;98837.53;;;12.51;81.74
73594;BME280;64760;53.404;23.498;2024-02-26T05:06:31;98833.94;;;12.45;81.53
73594;BME280;64760;53.404;23.498;2024-02-26T05:09:07;98841.72;;;12.35;82.47
73594;BME280;64760;53.404;23.498;2024-02-26T05:11:34;98840.88;;;12.23;81.82
73594;BME280;64760;53.404;23.498;2024-02-26T05:14:01;98847.16;;;12.17;81.97
73594;BME280;64760;53.404;23.498;2024-02-26T05:16:27;98851.34;;;12.13;83.14
73594;BME280;64760;53.404;23.498;2024-02-26T05:18:57;98848.34;;;12.21;83.41
73594;BME280;64760;53.404;23.498;2024-02-26T05:21:23;98856.09;;;12.29;82.83
73594;BME280;64760;53.404;23.498;2024-02-26T05:23:50;98855.84;;;12.31;83.16
73594;BME280;64760;53.404;23.498;2024-02-26T05:26:20;98859.72;;;12.46;82.30
73594;BME280;64760;53.404;23.498;2024-02-26T05:28:48;98860.84;;;12.57;81.25
73594;BME280;64760;53.404;23.498;2024-02-26T05:31:15;98862.81;;;12.50;81.31
73594;BME280;64760;53.404;23.498;2024-02-26T05:33:42;98861.38;;;12.47;81.91
73594;BME280;64760;53.404;23.498;2024-02-26T05:36:08;98858.13;;;12.45;81.29
73594;BME280;64760;53.404;23.498;2024-02-26T05:38:35;98849.78;;;12.35;81.66
73594;BME280;64760;53.404;23.498;2024-02-26T05:41:01;98868.44;;;12.30;82.41
73594;BME280;64760;53.404;23.498;2024-02-26T05:43:28;98877.22;;;12.26;82.26
73594;BME280;64760;53.404;23.498;2024-02-26T05:45:54;98876.75;;;12.29;82.28
73594;BME280;64760;53.404;23.498;2024-02-26T05:48:21;98874.09;;;12.40;81.68
73594;BME280;64760;53.404;23.498;2024-02-26T05:50:48;98879.94;;;12.37;83.17
73594;BME280;64760;53.404;23.498;2024-02-26T05:53:14;98879.66;;;12.57;83.06
73594;BME280;64760;53.404;23.498;2024-02-26T05:55:41;98878.22;;;12.54;83.80
73594;BME280;64760;53.404;23.498;2024-02-26T05:58:07;98893.34;;;12.79;83.55
73594;BME280;64760;53.404;23.498;2024-02-26T06:00:33;98881.22;;;12.88;83.35
73594;BME280;64760;53.404;23.498;2024-02-26T06:03:00;98886.25;;;12.96;82.04
73594;BME280;64760;53.404;23.498;2024-02-26T06:05:28;98895.03;;;12.91;82.86
73594;BME280;64760;53.404;23.498;2024-02-26T06:07:54;98885.69;;;12.94;82.59
73594;BME280;64760;53.404;23.498;2024-02-26T06:10:20;98890.38;;;13.10;82.04
73594;BME280;64760;53.404;23.498;2024-02-26T06:12:47;98890.28;;;13.16;82.46
73594;BME280;64760;53.404;23.498;2024-02-26T06:15:14;98881.88;;;13.25;82.35
73594;BME280;64760;53.404;23.498;2024-02-26T06:17:40;98896.97;;;13.37;82.11
73594;BME280;64760;53.404;23.498;2024-02-26T06:20:07;98893.78;;;13.52;81.87
73594;BME280;64760;53.404;23.498;2024-02-26T06:22:40;98900.53;;;13.66;81.95
73594;BME280;64760;53.404;23.498;2024-02-26T06:25:07;98902.41;;;13.65;81.52
73594;BME280;64760;53.404;23.498;2024-02-26T06:27:34;98903.47;;;13.64;82.40
73594;BME280;64760;53.404;23.498;2024-02-26T06:30:01;98892.81;;;13.58;83.70
73594;BME280;64760;53.404;23.498;2024-02-26T06:32:28;98895.94;;;13.78;82.98
73594;BME280;64760;53.404;23.498;2024-02-26T06:34:55;98898.53;;;13.85;82.44
73594;BME280;64760;53.404;23.498;2024-02-26T06:37:22;98894.56;;;13.76;82.28
73594;BME280;64760;53.404;23.498;2024-02-26T06:39:48;98902.94;;;13.91;82.61
73594;BME280;64760;53.404;23.498;2024-02-26T06:42:15;98904.13;;;13.95;81.81
73594;BME280;64760;53.404;23.498;2024-02-26T06:44:41;98908.59;;;14.18;80.39
73594;BME280;64760;53.404;23.498;2024-02-26T06:47:07;98908.56;;;14.01;81.74
73594;BME280;64760;53.404;23.498;2024-02-26T06:49:33;98920.34;;;14.11;81.02
73594;BME280;64760;53.404;23.498;2024-02-26T06:51:59;98917.66;;;14.11;81.55
73594;BME280;64760;53.404;23.498;2024-02-26T06:54:26;98910.28;;;14.07;81.13
73594;BME280;64760;53.404;23.498;2024-02-26T06:56:52;98922.34;;;14.16;81.32
73594;BME280;64760;53.404;23.498;2024-02-26T06:59:19;98913.47;;;14.04;81.96
73594;BME280;64760;53.404;23.498;2024-02-26T07:01:46;98913.28;;;14.22;82.10
73594;BME280;64760;53.404;23.498;2024-02-26T07:04:12;98917.13;;;14.26;81.75
73594;BME280;64760;53.404;23.498;2024-02-26T07:06:39;98913.19;;;14.17;82.50
73594;BME280;64760;53.404;23.498;2024-02-26T07:09:05;98923.19;;;14.45;81.62
73594;BME280;64760;53.404;23.498;2024-02-26T07:11:32;98915.91;;;14.45;81.40
73594;BME280;64760;53.404;23.498;2024-02-26T07:13:58;98918.22;;;14.53;81.30
73594;BME280;64760;53.404;23.498;2024-02-26T07:16:24;98919.03;;;14.54;80.99
73594;BME280;64760;53.404;23.498;2024-02-26T07:18:51;98909.94;;;14.72;81.41
73594;BME280;64760;53.404;23.498;2024-02-26T07:21:17;98915.00;;;14.68;81.54
73594;BME280;64760;53.404;23.498;2024-02-26T07:23:43;98910.59;;;14.79;80.56
73594;BME280;64760;53.404;23.498;2024-02-26T07:26:10;98920.16;;;14.41;82.38
73594;BME280;64760;53.404;23.498;2024-02-26T07:28:38;98916.88;;;14.68;80.37
73594;BME280;64760;53.404;23.498;2024-02-26T07:31:03;98920.13;;;14.70;80.08
73594;BME280;64760;53.404;23.498;2024-02-26T07:33:30;98916.97;;;14.89;80.61
73594;BME280;64760;53.404;23.498;2024-02-26T07:35:56;98928.31;;;14.75;79.74
73594;BME280;64760;53.404;23.498;2024-02-26T07:38:23;98933.22;;;14.78;79.34
73594;BME280;64760;53.404;23.498;2024-02-26T07:40:50;98937.66;;;14.84;79.25
73594;BME280;64760;53.404;23.498;2024-02-26T07:43:16;98935.84;;;14.89;78.81
73594;BME280;64760;53.404;23.498;2024-02-26T07:45:42;98936.59;;;14.85;78.58
73594;BME280;64760;53.404;23.498;2024-02-26T07:48:09;98940.69;;;14.87;78.22
73594;BME280;64760;53.404;23.498;2024-02-26T07:50:35;98946.22;;;14.64;78.38
73594;BME280;64760;53.404;23.498;2024-02-26T07:53:02;98943.19;;;14.77;77.54
73594;BME280;64760;53.404;23.498;2024-02-26T07:55:29;98944.19;;;14.31;79.24
73594;BME280;64760;53.404;23.498;2024-02-26T07:57:55;98950.78;;;14.64;78.34
73594;BME280;64760;53.404;23.498;2024-02-26T08:00:23;98957.69;;;14.31;79.90
73594;BME280;64760;53.404;23.498;2024-02-26T08:03:05;98964.38;;;14.40;78.45
73594;BME280;64760;53.404;23.498;2024-02-26T08:05:31;98964.44;;;14.74;77.00
73594;BME280;64760;53.404;23.498;2024-02-26T08:07:57;98967.53;;;14.66;76.65
73594;BME280;64760;53.404;23.498;2024-02-26T08:10:24;98977.69;;;14.75;76.51
73594;BME280;64760;53.404;23.498;2024-02-26T08:12:50;98977.84;;;14.69;76.92
73594;BME280;64760;53.404;23.498;2024-02-26T08:15:16;98977.09;;;14.85;76.04
73594;BME280;64760;53.404;23.498;2024-02-26T08:17:45;98979.56;;;14.75;76.53
73594;BME280;64760;53.404;23.498;2024-02-26T08:20:13;98968.16;;;15.01;74.98
73594;BME280;64760;53.404;23.498;2024-02-26T08:22:40;98971.84;;;14.95;74.49
73594;BME280;64760;53.404;23.498;2024-02-26T08:25:06;98976.13;;;15.08;74.42
73594;BME280;64760;53.404;23.498;2024-02-26T08:27:35;98968.09;;;15.29;73.95
73594;BME280;64760;53.404;23.498;2024-02-26T08:30:01;98963.13;;;15.71;72.89
73594;BME280;64760;53.404;23.498;2024-02-26T08:32:28;98966.41;;;15.95;70.45
73594;BME280;64760;53.404;23.498;2024-02-26T08:34:54;98973.47;;;15.96;70.49
73594;BME280;64760;53.404;23.498;2024-02-26T08:37:21;98968.09;;;16.01;69.33
73594;BME280;64760;53.404;23.498;2024-02-26T08:39:47;98962.22;;;16.04;68.16
73594;BME280;64760;53.404;23.498;2024-02-26T08:42:14;98969.81;;;16.07;68.00
73594;BME280;64760;53.404;23.498;2024-02-26T08:44:40;98967.63;;;15.66;68.30
73594;BME280;64760;53.404;23.498;2024-02-26T08:47:07;98970.72;;;15.41;68.57
73594;BME280;64760;53.404;23.498;2024-02-26T08:49:33;98975.91;;;15.59;67.53
73594;BME280;64760;53.404;23.498;2024-02-26T08:51:59;98969.75;;;16.02;66.48
73594;BME280;64760;53.404;23.498;2024-02-26T08:54:26;98977.47;;;15.93;66.47
73594;BME280;64760;53.404;23.498;2024-02-26T08:56:52;98970.59;;;15.86;66.14
73594;BME280;64760;53.404;23.498;2024-02-26T08:59:18;98973.22;;;15.81;66.06
73594;BME280;64760;53.404;23.498;2024-02-26T09:01:48;98977.84;;;16.02;65.30
73594;BME280;64760;53.404;23.498;2024-02-26T09:04:15;98984.34;;;16.23;65.11
73594;BME280;64760;53.404;23.498;2024-02-26T09:06:41;98982.72;;;16.43;63.94
73594;BME280;64760;53.404;23.498;2024-02-26T09:09:07;98986.13;;;16.56;63.86
73594;BME280;64760;53.404;23.498;2024-02-26T09:11:34;98990.31;;;16.68;63.45
73594;BME280;64760;53.404;23.498;2024-02-26T09:14:00;99001.13;;;16.90;62.37
73594;BME280;64760;53.404;23.498;2024-02-26T09:16:27;98993.00;;;16.90;62.27
73594;BME280;64760;53.404;23.498;2024-02-26T09:18:53;98994.09;;;16.45;62.76
73594;BME280;64760;53.404;23.498;2024-02-26T09:21:19;98995.53;;;16.10;64.03
73594;BME280;64760;53.404;23.498;2024-02-26T09:23:49;98996.22;;;16.00;64.98
73594;BME280;64760;53.404;23.498;2024-02-26T09:26:16;99006.81;;;15.85;65.00
73594;BME280;64760;53.404;23.498;2024-02-26T09:28:43;98993.44;;;15.95;64.37
73594;BME280;64760;53.404;23.498;2024-02-26T09:31:10;98998.13;;;15.83;64.85
73594;BME280;64760;53.404;23.498;2024-02-26T09:33:36;98995.16;;;16.23;63.79
73594;BME280;64760;53.404;23.498;2024-02-26T09:36:04;99003.22;;;16.39;63.04
73594;BME280;64760;53.404;23.498;2024-02-26T09:38:30;99008.03;;;16.76;61.75
73594;BME280;64760;53.404;23.498;2024-02-26T09:40:57;99008.63;;;16.83;60.92
73594;BME280;64760;53.404;23.498;2024-02-26T09:43:24;99011.69;;;17.18;60.39
73594;BME280;64760;53.404;23.498;2024-02-26T09:45:55;99014.50;;;17.60;58.58
73594;BME280;64760;53.404;23.498;2024-02-26T09:48:22;99008.84;;;17.62;58.62
73594;BME280;64760;53.404;23.498;2024-02-26T09:50:50;99011.69;;;17.50;58.27
73594;BME280;64760;53.404;23.498;2024-02-26T09:53:16;99010.03;;;17.49;57.74
73594;BME280;64760;53.404;23.498;2024-02-26T09:55:43;99011.53;;;17.62;57.40
73594;BME280;64760;53.404;23.498;2024-02-26T09:58:10;99014.41;;;17.50;57.48
73594;BME280;64760;53.404;23.498;2024-02-26T10:00:37;99012.47;;;17.46;57.72
73594;BME280;64760;53.404;23.498;2024-02-26T10:03:06;99009.09;;;17.33;57.51
73594;BME280;64760;53.404;23.498;2024-02-26T10:05:37;99015.13;;;17.41;57.78
73594;BME280;64760;53.404;23.498;2024-02-26T10:08:03;99012.69;;;17.39;57.44
73594;BME280;64760;53.404;23.498;2024-02-26T10:10:30;99012.50;;;17.82;56.31
73594;BME280;64760;53.404;23.498;2024-02-26T10:12:59;99003.50;;;17.77;56.20
73594;BME280;64760;53.404;23.498;2024-02-26T10:15:26;99009.34;;;17.32;57.05
73594;BME280;64760;53.404;23.498;2024-02-26T10:17:52;99018.03;;;17.02;57.55
73594;BME280;64760;53.404;23.498;2024-02-26T10:20:18;99021.81;;;17.01;58.04
73594;BME280;64760;53.404;23.498;2024-02-26T10:22:47;99023.84;;;17.48;57.18
73594;BME280;64760;53.404;23.498;2024-02-26T10:25:14;99023.56;;;17.76;56.13
73594;BME280;64760;53.404;23.498;2024-02-26T10:27:41;99023.28;;;18.14;54.91
73594;BME280;64760;53.404;23.498;2024-02-26T10:30:19;99021.75;;;17.92;54.73
73594;BME280;64760;53.404;23.498;2024-02-26T10:32:46;99015.81;;;18.42;53.79
73594;BME280;64760;53.404;23.498;2024-02-26T10:35:16;99020.84;;;18.70;52.63
73594;BME280;64760;53.404;23.498;2024-02-26T10:37:43;99025.81;;;18.36;52.19
73594;BME280;64760;53.404;23.498;2024-02-26T10:40:13;99027.66;;;18.25;52.28
73594;BME280;64760;53.404;23.498;2024-02-26T10:42:41;99024.94;;;18.20;51.65
73594;BME280;64760;53.404;23.498;2024-02-26T10:45:08;99024.59;;;18.54;50.93
73594;BME280;64760;53.404;23.498;2024-02-26T10:47:38;99024.38;;;18.70;50.19
73594;BME280;64760;53.404;23.498;2024-02-26T10:50:06;99031.72;;;18.80;50.11
73594;BME280;64760;53.404;23.498;2024-02-26T10:52:33;99025.19;;;18.71;50.68
73594;BME280;64760;53.404;23.498;2024-02-26T10:55:01;99030.84;;;18.54;51.45
73594;BME280;64760;53.404;23.498;2024-02-26T10:57:38;99036.88;;;18.76;50.58
73594;BME280;64760;53.404;23.498;2024-02-26T11:00:15;99028.25;;;19.00;50.23
73594;BME280;64760;53.404;23.498;2024-02-26T11:03:03;99035.56;;;18.99;49.33
73594;BME280;64760;53.404;23.498;2024-02-26T11:05:33;99037.78;;;19.02;49.30
73594;BME280;64760;53.404;23.498;2024-02-26T11:08:00;99033.09;;;18.83;49.08
73594;BME280;64760;53.404;23.498;2024-02-26T11:10:29;99031.69;;;18.70;49.63
73594;BME280;64760;53.404;23.498;2024-02-26T11:12:59;99035.34;;;18.39;50.32
73594;BME280;64760;53.404;23.498;2024-02-26T11:15:25;99035.50;;;18.17;51.00
73594;BME280;64760;53.404;23.498;2024-02-26T11:17:52;99038.03;;;18.34;50.76
73594;BME280;64760;53.404;23.498;2024-02-26T11:20:19;99040.94;;;18.74;50.28
73594;BME280;64760;53.404;23.498;2024-02-26T11:22:46;99039.38;;;18.93;49.06
73594;BME280;64760;53.404;23.498;2024-02-26T11:25:13;99048.41;;;19.29;47.98
73594;BME280;64760;53.404;23.498;2024-02-26T11:27:53;99053.84;;;19.34;47.57
73594;BME280;64760;53.404;23.498;2024-02-26T11:30:24;99049.72;;;19.11;48.32
73594;BME280;64760;53.404;23.498;2024-02-26T11:32:52;99044.25;;;18.86;47.70
73594;BME280;64760;53.404;23.498;2024-02-26T11:35:19;99050.50;;;18.97;47.95
73594;BME280;64760;53.404;23.498;2024-02-26T11:37:56;99046.41;;;18.89;47.44
73594;BME280;64760;53.404;23.498;2024-02-26T11:40:26;99046.34;;;18.69;47.87
73594;BME280;64760;53.404;23.498;2024-02-26T11:42:53;99048.78;;;18.65;48.38
73594;BME280;64760;53.404;23.498;2024-02-26T11:45:47;99050.13;;;18.11;49.26
73594;BME280;64760;53.404;23.498;2024-02-26T11:48:16;99050.81;;;17.96;49.22
73594;BME280;64760;53.404;23.498;2024-02-26T11:50:52;99056.03;;;18.08;49.14
73594;BME280;64760;53.404;23.498;2024-02-26T11:58:48;99067.63;;;18.97;47.56
73594;BME280;64760;53.404;23.498;2024-02-26T12:01:50;99057.41;;;19.35;47.37
73594;BME280;64760;53.404;23.498;2024-02-26T12:04:26;99058.13;;;19.00;47.94
73594;BME280;64760;53.404;23.498;2024-02-26T12:06:57;99066.06;;;19.32;47.71
73594;BME280;64760;53.404;23.498;2024-02-26T12:09:41;99060.97;;;19.65;46.42
73594;BME280;64760;53.404;23.498;2024-02-26T12:12:10;99061.78;;;19.71;46.01
73594;BME280;64760;53.404;23.498;2024-02-26T12:14:41;99063.16;;;19.53;46.16
73594;BME280;64760;53.404;23.498;2024-02-26T12:17:21;99061.72;;;19.36;46.23
73594;BME280;64760;53.404;23.498;2024-02-26T12:19:47;99060.16;;;19.90;45.29
73594;BME280;64760;53.404;23.498;2024-02-26T12:22:14;99049.47;;;20.19;45.24
73594;BME280;64760;53.404;23.498;2024-02-26T12:24:44;99052.75;;;20.26;44.46
73594;BME280;64760;53.404;23.498;2024-02-26T12:27:11;99045.88;;;20.54;44.28
73594;BME280;64760;53.404;23.498;2024-02-26T12:29:37;99042.66;;;20.37;43.63
73594;BME280;64760;53.404;23.498;2024-02-26T12:32:04;99039.28;;;20.65;42.98
73594;BME280;64760;53.404;23.498;2024-02-26T12:34:31;99040.47;;;20.24;42.61
73594;BME280;64760;53.404;23.498;2024-02-26T12:36:58;99042.19;;;19.79;43.03
73594;BME280;64760;53.404;23.498;2024-02-26T12:39:24;99050.91;;;19.56;43.97
73594;BME280;64760;53.404;23.498;2024-02-26T12:41:50;99058.19;;;19.35;44.58
73594;BME280;64760;53.404;23.498;2024-02-26T12:44:18;99058.44;;;19.13;45.34
73594;BME280;64760;53.404;23.498;2024-02-26T12:46:44;99059.25;;;19.19;45.79
73594;BME280;64760;53.404;23.498;2024-02-26T12:49:15;99065.03;;;19.43;45.49
73594;BME280;64760;53.404;23.498;2024-02-26T12:51:44;99053.06;;;19.64;44.58
73594;BME280;64760;53.404;23.498;2024-02-26T12:54:11;99053.06;;;19.89;44.71
73594;BME280;64760;53.404;23.498;2024-02-26T12:56:39;99046.56;;;19.90;44.23
73594;BME280;64760;53.404;23.498;2024-02-26T12:59:05;99063.97;;;19.54;45.73
73594;BME280;64760;53.404;23.498;2024-02-26T13:01:32;99061.50;;;19.42;46.06
73594;BME280;64760;53.404;23.498;2024-02-26T13:03:58;99065.84;;;19.43;46.16